Time;durP1;ratioP1;P1;durP2;ratioP2;P2;SDS_P1;SDS_P2;PMS_P1;PMS_P2;Temp;Humidity;BMP_temperature;BMP_pressure;BME280_temperature;BME280_humidity;BME280_pressure;Samples;Min_cycle;Max_cycle;Signal;HPM_P1;HPM_P2
2023/10/01 00:02:02;;;;;;;;;;;;;;;16.03;60.61;101436.06;6168932;23;6985;-74
2023/10/01 00:04:27;;;;;;;;;;;;;;;16.04;60.63;101440.44;6145998;23;7245;-74
2023/10/01 00:06:53;;;;;;;;;;;;;;;16.05;60.50;101440.47;6146911;23;6747;-74
2023/10/01 00:09:19;;;;;;;;;;;;;;;16.06;59.95;101450.00;6139020;23;6944;-74
2023/10/01 00:11:45;;;;;;;;;;;;;;;16.04;60.20;101446.47;6144943;23;6763;-74
2023/10/01 00:14:11;;;;;;;;;;;;;;;16.00;60.34;101438.53;6142810;23;6917;-74
2023/10/01 00:16:37;;;;;;;;;;;;;;;15.98;59.97;101437.56;6143446;23;6759;-75
2023/10/01 00:19:05;;;;;;;;;;;;;;;15.95;60.51;101425.41;6119331;23;6775;-74
2023/10/01 00:21:31;;;;;;;;;;;;;;;15.92;60.15;101413.22;6143504;23;6790;-74
2023/10/01 00:23:57;;;;;;;;;;;;;;;15.91;60.02;101415.75;6142574;23;6775;-74
2023/10/01 00:26:23;;;;;;;;;;;;;;;15.90;60.41;101409.69;6143890;23;6754;-74
2023/10/01 00:28:51;;;;;;;;;;;;;;;15.91;60.79;101411.44;6120796;23;7015;-74
2023/10/01 00:31:19;;;;;;;;;;;;;;;15.92;60.29;101415.81;6122376;23;6786;-74
2023/10/01 00:33:47;;;;;;;;;;;;;;;15.94;60.31;101419.34;6123397;23;7007;-75
2023/10/01 00:36:13;;;;;;;;;;;;;;;15.95;60.13;101418.53;6146449;23;6754;-74
2023/10/01 00:38:39;;;;;;;;;;;;;;;15.96;60.39;101424.56;6123677;23;6927;-74
2023/10/01 00:41:07;;;;;;;;;;;;;;;15.99;60.26;101423.81;6121466;23;7069;-74
2023/10/01 00:43:33;;;;;;;;;;;;;;;16.00;60.26;101418.72;6119087;23;6763;-74
2023/10/01 00:45:59;;;;;;;;;;;;;;;16.00;59.98;101415.25;6113665;23;6942;-74
2023/10/01 00:48:25;;;;;;;;;;;;;;;16.01;59.75;101419.59;6112106;23;6974;-74
2023/10/01 00:50:54;;;;;;;;;;;;;;;16.02;59.98;101423.94;6113233;23;6827;-75
2023/10/01 00:53:19;;;;;;;;;;;;;;;16.00;60.01;101425.59;6107589;23;7036;-76
2023/10/01 00:55:45;;;;;;;;;;;;;;;16.01;60.26;101422.19;6111096;23;6981;-75
2023/10/01 00:58:11;;;;;;;;;;;;;;;16.01;59.89;101417.00;6112092;23;6949;-75
2023/10/01 01:00:37;;;;;;;;;;;;;;;16.02;59.76;101422.25;6116488;23;6894;-76
2023/10/01 01:03:18;;;;;;;;;;;;;;;16.04;59.74;101420.63;6113580;23;6960;-75
2023/10/01 01:05:57;;;;;;;;;;;;;;;16.04;59.95;101417.16;6090412;23;6978;-75
2023/10/01 01:09:11;;;;;;;;;;;;;;;16.06;60.03;101410.34;6135384;23;6847;-75
2023/10/01 01:11:15;;;;;;;;;;;;;;;16.04;59.86;101397.34;6100895;23;6775;-75
2023/10/01 01:13:43;;;;;;;;;;;;;;;16.05;59.72;101391.34;6117012;23;7267;-75
2023/10/01 01:16:12;;;;;;;;;;;;;;;16.05;59.30;101398.25;6114218;23;7153;-75
2023/10/01 01:18:41;;;;;;;;;;;;;;;16.03;59.75;101389.50;6115524;23;7117;-75
2023/10/01 01:21:13;;;;;;;;;;;;;;;16.01;59.39;101388.56;6112637;23;6941;-75
2023/10/01 01:23:45;;;;;;;;;;;;;;;15.99;59.96;101387.63;6087777;23;6987;-76
2023/10/01 01:26:20;;;;;;;;;;;;;;;15.97;59.43;101392.72;6082342;23;7050;-75
2023/10/01 01:28:47;;;;;;;;;;;;;;;16.00;59.66;101399.72;6085153;23;6958;-76
2023/10/01 01:31:14;;;;;;;;;;;;;;;16.01;59.50;101385.97;6087382;23;6767;-75
2023/10/01 01:33:40;;;;;;;;;;;;;;;16.04;59.54;101389.59;6086212;23;6782;-75
2023/10/01 01:36:14;;;;;;;;;;;;;;;16.07;59.71;101379.34;6085986;23;7040;-75
2023/10/01 01:39:26;;;;;;;;;;;;;;;16.10;59.83;101388.94;6084804;23;7151;-75
2023/10/01 01:41:52;;;;;;;;;;;;;;;16.12;59.50;101373.50;6086724;23;6962;-75
2023/10/01 01:44:19;;;;;;;;;;;;;;;16.15;59.61;101374.53;6071226;23;7144;-75
2023/10/01 01:46:48;;;;;;;;;;;;;;;16.18;59.08;101374.63;6086744;23;6937;-75
2023/10/01 01:49:18;;;;;;;;;;;;;;;16.19;59.33;101376.41;6111810;23;6846;-75
2023/10/01 01:51:57;;;;;;;;;;;;;;;16.18;59.07;101369.47;6139088;23;6807;-75
2023/10/01 01:54:30;;;;;;;;;;;;;;;16.19;59.09;101360.88;6136760;23;7388;-76
2023/10/01 01:56:57;;;;;;;;;;;;;;;16.17;59.02;101357.34;6138625;23;7186;-76
2023/10/01 01:59:28;;;;;;;;;;;;;;;16.18;59.11;101355.66;6090276;23;7072;-75
2023/10/01 02:01:55;;;;;;;;;;;;;;;16.16;59.37;101358.19;6094316;23;6977;-74
2023/10/01 02:04:22;;;;;;;;;;;;;;;16.18;59.16;101359.13;6145324;23;6782;-75
2023/10/01 02:06:50;;;;;;;;;;;;;;;16.18;59.05;101358.25;6120159;23;6958;-74
2023/10/01 02:09:20;;;;;;;;;;;;;;;16.19;59.25;101353.13;6142494;23;6985;-73
2023/10/01 02:11:49;;;;;;;;;;;;;;;16.21;59.22;101356.63;6142807;23;6771;-71
2023/10/01 02:14:31;;;;;;;;;;;;;;;16.23;59.02;101357.63;6144312;23;6774;-73
2023/10/01 02:17:15;;;;;;;;;;;;;;;16.28;58.87;101356.91;6142157;23;6779;-73
2023/10/01 02:19:46;;;;;;;;;;;;;;;16.29;59.01;101356.97;6142293;23;6883;-74
2023/10/01 02:22:13;;;;;;;;;;;;;;;16.32;58.78;101351.00;6145091;23;6832;-72
2023/10/01 02:24:45;;;;;;;;;;;;;;;16.35;59.02;101356.34;6096183;23;6929;-73
2023/10/01 02:27:24;;;;;;;;;;;;;;;16.37;58.79;101350.41;6097004;23;6843;-74
2023/10/01 02:32:35;;;;;;;;;;;;;;;16.38;58.60;101344.41;6099143;23;7157;-72
2023/10/01 02:35:33;;;;;;;;;;;;;;;16.40;58.55;101346.16;6143555;23;6959;-73
2023/10/01 02:37:47;;;;;;;;;;;;;;;16.41;58.53;101341.03;6097364;23;6799;-73
2023/10/01 02:40:17;;;;;;;;;;;;;;;16.40;58.58;101331.50;6096255;23;6779;-74
2023/10/01 02:42:45;;;;;;;;;;;;;;;16.42;58.55;101331.56;6120398;23;6980;-74
2023/10/01 02:45:30;;;;;;;;;;;;;;;16.44;58.61;101338.59;6096546;23;6767;-73
2023/10/01 02:48:16;;;;;;;;;;;;;;;16.45;58.93;101342.94;6101455;23;7044;-73
2023/10/01 02:50:48;;;;;;;;;;;;;;;16.47;58.68;101332.66;6079665;23;6942;-73
2023/10/01 02:53:14;;;;;;;;;;;;;;;16.50;58.55;101337.94;6112271;23;6982;-72
2023/10/01 02:55:44;;;;;;;;;;;;;;;16.55;58.20;101340.69;6067902;23;6782;-73
2023/10/01 02:58:28;;;;;;;;;;;;;;;16.57;58.27;101341.63;6091281;23;6977;-72
2023/10/01 03:00:55;;;;;;;;;;;;;;;16.58;58.44;101338.22;6093079;23;6966;-75
2023/10/01 03:03:32;;;;;;;;;;;;;;;16.61;58.47;101343.50;6088168;23;6778;-72
2023/10/01 03:05:59;;;;;;;;;;;;;;;16.62;58.63;101332.34;6092329;23;6823;-74
2023/10/01 03:11:11;;;;;;;;;;;;;;;16.65;58.63;101327.28;6096513;23;6779;-74
2023/10/01 03:13:38;;;;;;;;;;;;;;;16.66;58.66;101337.72;6114154;23;6902;-74
2023/10/01 03:18:54;;;;;;;;;;;;;;;16.70;58.04;101330.03;6126132;23;6768;-74
2023/10/01 03:22:13;;;;;;;;;;;;;;;16.69;58.30;101331.75;6144492;23;6850;-74
2023/10/01 03:24:10;;;;;;;;;;;;;;;16.71;58.27;101334.41;6165733;23;6759;-74
2023/10/01 03:26:38;;;;;;;;;;;;;;;16.73;58.34;101337.91;6168883;23;7173;-74
2023/10/01 03:29:16;;;;;;;;;;;;;;;16.74;58.19;101345.75;6145284;23;6923;-74
2023/10/01 03:48:57;;;;;;;;;;;;;;;16.70;58.21;101349.03;6095472;23;6947;-90
2023/10/01 03:54:20;;;;;;;;;;;;;;;16.68;58.25;101350.69;6072474;23;6767;-89
2023/10/01 03:57:00;;;;;;;;;;;;;;;16.69;58.22;101349.84;6046398;23;7045;-88
2023/10/01 04:03:17;;;;;;;;;;;;;;;16.72;58.19;101347.41;6082206;23;11429;-88
2023/10/01 04:06:16;;;;;;;;;;;;;;;16.74;58.27;101343.16;6048950;23;7027;-88
2023/10/01 04:09:18;;;;;;;;;;;;;;;16.75;57.96;101339.75;6069637;23;6945;-89
2023/10/01 04:15:07;;;;;;;;;;;;;;;16.76;58.13;101349.28;6076835;23;6767;-89
2023/10/01 04:18:41;;;;;;;;;;;;;;;16.76;57.96;101349.28;6069093;23;6977;-89
2023/10/01 04:25:08;;;;;;;;;;;;;;;16.82;57.90;101355.53;6078503;23;7331;-89
2023/10/01 04:27:45;;;;;;;;;;;;;;;16.83;58.22;101349.50;6071345;23;7026;-88
2023/10/01 04:30:36;;;;;;;;;;;;;;;16.88;57.81;101351.44;6041273;23;6733;-89
2023/10/01 04:33:17;;;;;;;;;;;;;;;16.91;57.74;101359.31;6121668;23;6748;-89
2023/10/01 04:35:56;;;;;;;;;;;;;;;16.91;57.55;101353.28;6099375;23;6756;-89
2023/10/01 04:39:08;;;;;;;;;;;;;;;16.88;57.65;101346.28;6077652;23;7038;-87
2023/10/01 04:41:46;;;;;;;;;;;;;;;16.90;57.79;101346.31;6101455;23;6680;-87
2023/10/01 04:44:36;;;;;;;;;;;;;;;16.89;57.47;101357.50;6067152;23;7174;-86
2023/10/01 04:50:17;;;;;;;;;;;;;;;16.86;57.43;101350.50;6016769;23;6954;-87
2023/10/01 04:53:09;;;;;;;;;;;;;;;;;;;;;
2023/10/01 04:55:57;;;;;;;;;;;;;;;;;;;;;
2023/10/01 05:02:18;;;;;;;;;;;;;;;16.80;57.66;101335.63;6093246;23;6953;-87
2023/10/01 05:04:47;;;;;;;;;;;;;;;16.85;57.61;101334.91;6145042;23;7174;-87
2023/10/01 05:07:36;;;;;;;;;;;;;;;16.88;58.02;101342.78;6127089;23;6822;-89
2023/10/01 05:10:36;;;;;;;;;;;;;;;16.85;57.89;101329.72;6127256;23;6743;-87
2023/10/01 05:13:44;;;;;;;;;;;;;;;;;;;;;
2023/10/01 05:16:39;;;;;;;;;;;;;;;16.90;57.50;101335.94;6133251;23;6791;-87
2023/10/01 05:19:12;;;;;;;;;;;;;;;16.92;57.68;101344.69;6125138;23;6746;-87
2023/10/01 05:25:20;;;;;;;;;;;;;;;16.96;57.95;101340.50;6135311;23;6767;-75
2023/10/01 05:27:46;;;;;;;;;;;;;;;17.01;57.98;101334.69;6111098;23;6818;-75
2023/10/01 05:30:36;;;;;;;;;;;;;;;17.07;57.58;101329.72;6114973;23;6743;-74
2023/10/01 05:33:05;;;;;;;;;;;;;;;17.09;57.65;101342.72;6096877;23;6961;-75
2023/10/01 05:35:47;;;;;;;;;;;;;;;17.12;57.57;101336.78;6089667;23;6931;-75
2023/10/01 05:38:16;;;;;;;;;;;;;;;17.12;57.74;101337.66;6092547;23;6771;-75
2023/10/01 05:40:44;;;;;;;;;;;;;;;17.17;57.70;101340.41;6089836;23;7030;-75
2023/10/01 05:43:13;;;;;;;;;;;;;;;17.21;57.88;101337.13;6090627;23;6783;-75
2023/10/01 05:45:52;;;;;;;;;;;;;;;17.26;57.75;101339.88;6092158;23;7104;-76
2023/10/01 05:48:19;;;;;;;;;;;;;;;17.29;57.31;101346.06;6115050;23;6787;-77
2023/10/01 05:50:49;;;;;;;;;;;;;;;17.33;58.39;101350.50;6091951;23;6867;-78
2023/10/01 05:53:18;;;;;;;;;;;;;;;17.42;57.62;101359.44;6088685;23;6850;-75
2023/10/01 05:55:44;;;;;;;;;;;;;;;17.43;57.48;101348.22;6092557;23;6855;-75
2023/10/01 05:58:13;;;;;;;;;;;;;;;17.46;57.36;101345.75;6093708;23;6923;-75
2023/10/01 06:01:27;;;;;;;;;;;;;;;17.51;57.60;101351.97;6090992;23;6834;-75
2023/10/01 06:03:30;;;;;;;;;;;;;;;17.56;57.76;101350.41;6091745;23;6791;-75
2023/10/01 06:05:58;;;;;;;;;;;;;;;17.58;57.33;101348.78;6091863;23;7438;-75
2023/10/01 06:08:45;;;;;;;;;;;;;;;17.62;57.57;101347.13;6092716;23;7647;-75
2023/10/01 06:11:15;;;;;;;;;;;;;;;17.66;57.57;101355.91;6096243;23;6923;-75
2023/10/01 06:13:51;;;;;;;;;;;;;;;17.69;57.71;101356.91;6091658;23;6992;-75
2023/10/01 06:16:22;;;;;;;;;;;;;;;17.74;57.31;101354.47;6088470;23;7497;-75
2023/10/01 06:18:57;;;;;;;;;;;;;;;17.76;57.47;101356.28;6068096;23;6845;-77
2023/10/01 06:21:26;;;;;;;;;;;;;;;17.81;57.52;101358.13;6092507;23;6771;-76
2023/10/01 06:23:54;;;;;;;;;;;;;;;17.85;57.79;101352.25;6117303;23;6938;-75
2023/10/01 06:26:36;;;;;;;;;;;;;;;17.89;57.42;101348.91;6090993;23;6774;-76
2023/10/01 06:29:04;;;;;;;;;;;;;;;17.95;56.96;101353.41;6096697;23;7002;-76
2023/10/01 06:31:47;;;;;;;;;;;;;;;17.99;57.79;101357.88;6092009;23;7188;-76
2023/10/01 06:34:15;;;;;;;;;;;;;;;18.04;57.31;101359.81;6120537;23;6975;-76
2023/10/01 06:36:42;;;;;;;;;;;;;;;18.10;57.19;101356.53;6092971;23;6778;-76
2023/10/01 06:39:19;;;;;;;;;;;;;;;18.16;57.34;101348.97;6118244;23;6771;-76
2023/10/01 06:41:45;;;;;;;;;;;;;;;18.23;57.41;101349.16;6117305;23;6778;-74
2023/10/01 06:44:13;;;;;;;;;;;;;;;18.30;57.15;101352.00;6121910;23;6779;-74
2023/10/01 06:46:40;;;;;;;;;;;;;;;18.36;57.12;101351.31;6095665;23;8876;-73
2023/10/01 06:49:08;;;;;;;;;;;;;;;18.46;56.92;101362.84;6119191;23;7045;-74
2023/10/01 06:51:43;;;;;;;;;;;;;;;18.52;56.92;101351.75;6091466;23;6779;-73
2023/10/01 06:54:14;;;;;;;;;;;;;;;18.58;57.22;101349.34;6071894;23;7140;-75
2023/10/01 06:56:47;;;;;;;;;;;;;;;18.66;57.62;101349.59;6088325;23;6831;-73
2023/10/01 06:59:14;;;;;;;;;;;;;;;18.72;57.17;101344.59;6119445;23;6934;-74
2023/10/01 07:01:47;;;;;;;;;;;;;;;18.80;57.01;101340.50;6116713;23;6973;-74
2023/10/01 07:04:23;;;;;;;;;;;;;;;18.89;57.02;101342.47;6094798;23;7187;-74
2023/10/01 07:06:53;;;;;;;;;;;;;;;18.97;57.31;101343.56;6120971;23;7219;-73
2023/10/01 07:09:32;;;;;;;;;;;;;;;19.05;56.91;101349.00;6096485;23;6915;-74
2023/10/01 07:12:01;;;;;;;;;;;;;;;19.13;57.10;101344.03;6097227;23;7136;-76
2023/10/01 07:14:31;;;;;;;;;;;;;;;19.23;57.19;101347.75;6087761;23;6964;-73
2023/10/01 07:17:03;;;;;;;;;;;;;;;19.32;56.88;101348.00;6117984;23;6779;-73
2023/10/01 07:19:31;;;;;;;;;;;;;;;19.41;56.62;101343.06;6092551;23;6967;-73
2023/10/01 07:21:57;;;;;;;;;;;;;;;19.52;56.42;101353.75;6115999;23;6882;-76
2023/10/01 07:24:30;;;;;;;;;;;;;;;19.61;56.96;101345.31;6091374;23;7116;-73
2023/10/01 07:27:06;;;;;;;;;;;;;;;19.70;56.72;101342.03;6118174;23;7388;-75
2023/10/01 07:29:34;;;;;;;;;;;;;;;19.79;56.72;101344.00;6114618;23;6842;-75
2023/10/01 07:32:08;;;;;;;;;;;;;;;19.90;56.14;101346.88;6068396;23;6951;-73
2023/10/01 07:34:50;;;;;;;;;;;;;;;20.00;56.25;101350.63;6088894;23;6934;-76
2023/10/01 07:37:31;;;;;;;;;;;;;;;20.08;56.22;101347.34;6070230;23;6969;-73
2023/10/01 07:40:09;;;;;;;;;;;;;;;20.18;56.05;101351.06;6094610;23;7236;-74
2023/10/01 07:42:46;;;;;;;;;;;;;;;20.29;56.27;101361.72;6090855;23;6966;-73
2023/10/01 07:45:16;;;;;;;;;;;;;;;20.39;55.62;101352.38;6116587;23;6998;-74
2023/10/01 07:47:46;;;;;;;;;;;;;;;20.49;55.67;101353.50;6116916;23;6774;-73
2023/10/01 07:50:16;;;;;;;;;;;;;;;20.58;55.57;101358.91;6120766;23;7221;-76
2023/10/01 07:52:44;;;;;;;;;;;;;;;20.68;55.57;101358.25;6128508;23;7097;-75
2023/10/01 07:55:29;;;;;;;;;;;;;;;20.77;55.50;101357.56;6140957;23;6763;-74
2023/10/01 07:58:22;;;;;;;;;;;;;;;20.87;55.33;101356.06;6145451;23;7048;-74
2023/10/01 08:00:44;;;;;;;;;;;;;;;20.96;54.97;101357.97;6125704;23;6787;-74
2023/10/01 08:05:47;;;;;;;;;;;;;;;21.15;54.94;101355.72;6154443;23;6759;-74
2023/10/01 08:08:35;;;;;;;;;;;;;;;21.25;54.69;101346.38;6118529;23;7100;-74
2023/10/01 08:11:02;;;;;;;;;;;;;;;21.35;54.38;101340.47;6142495;23;6957;-74
2023/10/01 08:13:28;;;;;;;;;;;;;;;21.45;54.58;101341.50;6144264;23;6842;-74
2023/10/01 08:15:57;;;;;;;;;;;;;;;21.55;54.45;101351.25;6144941;23;6942;-74
2023/10/01 08:18:35;;;;;;;;;;;;;;;21.64;54.39;101363.59;6145408;23;6870;-74
2023/10/01 08:21:15;;;;;;;;;;;;;;;21.72;53.90;101366.34;6123241;23;6799;-74
2023/10/01 08:23:54;;;;;;;;;;;;;;;21.80;53.95;101361.25;6142809;23;6928;-74
2023/10/01 08:26:43;;;;;;;;;;;;;;;21.89;53.89;101370.13;6098910;23;6976;-74
2023/10/01 08:29:08;;;;;;;;;;;;;;;21.96;53.85;101363.28;6121075;23;6906;-74
2023/10/01 08:32:08;;;;;;;;;;;;;;;22.06;53.83;101369.50;6119687;23;6950;-74
2023/10/01 08:37:07;;;;;;;;;;;;;;;22.23;53.45;101367.19;6134355;23;6925;-74
2023/10/01 08:39:48;;;;;;;;;;;;;;;22.33;53.21;101369.06;6112996;23;6774;-76
2023/10/01 08:42:17;;;;;;;;;;;;;;;22.41;53.20;101363.94;6101672;23;6775;-76
2023/10/01 08:44:54;;;;;;;;;;;;;;;22.52;52.92;101363.25;6110233;23;7134;-79
2023/10/01 08:47:27;;;;;;;;;;;;;;;22.60;52.95;101357.28;6106973;23;7168;-75
2023/10/01 08:52:52;;;;;;;;;;;;;;;22.78;53.22;101360.13;6136604;23;6767;-76
2023/10/01 08:55:23;;;;;;;;;;;;;;;22.86;52.99;101361.94;6115536;23;6910;-75
2023/10/01 08:57:52;;;;;;;;;;;;;;;22.95;52.46;101365.53;6136581;23;6945;-75
2023/10/01 09:00:24;;;;;;;;;;;;;;;23.01;52.53;101374.31;6118687;23;6849;-74
2023/10/01 09:03:10;;;;;;;;;;;;;;;23.11;52.23;101370.09;6125856;23;6961;-75
2023/10/01 09:05:37;;;;;;;;;;;;;;;23.24;51.85;101380.69;6097651;23;6914;-75
2023/10/01 09:08:15;;;;;;;;;;;;;;;23.30;51.94;101376.41;6094701;23;6779;-75
2023/10/01 09:10:52;;;;;;;;;;;;;;;23.38;51.40;101368.69;6119039;23;6994;-75
2023/10/01 09:13:25;;;;;;;;;;;;;;;23.48;51.25;101358.31;6091428;23;6783;-75
2023/10/01 09:15:55;;;;;;;;;;;;;;;23.54;51.38;101358.34;6092041;23;6958;-74
2023/10/01 09:18:26;;;;;;;;;;;;;;;23.62;50.96;101345.34;6116325;23;6894;-74
2023/10/01 09:21:06;;;;;;;;;;;;;;;23.69;50.88;101345.41;6067008;23;7224;-74
2023/10/01 09:23:56;;;;;;;;;;;;;;;23.76;50.90;101346.34;6113822;23;7231;-74
2023/10/01 09:26:55;;;;;;;;;;;;;;;23.84;50.95;101341.16;6114431;23;6779;-75
2023/10/01 09:29:25;;;;;;;;;;;;;;;23.91;50.30;101350.81;6068257;23;6998;-74
2023/10/01 09:31:58;;;;;;;;;;;;;;;23.98;50.01;101356.97;6112995;23;7043;-74
2023/10/01 09:34:31;;;;;;;;;;;;;;;24.06;50.40;101357.06;6111608;23;6954;-74
2023/10/01 09:37:00;;;;;;;;;;;;;;;24.12;50.24;101351.84;6134305;23;6775;-74
2023/10/01 09:39:46;;;;;;;;;;;;;;;24.20;50.54;101358.03;6142487;23;7452;-74
2023/10/01 09:42:28;;;;;;;;;;;;;;;24.29;50.27;101364.19;6125982;23;6782;-75
2023/10/01 09:45:09;;;;;;;;;;;;;;;24.36;50.24;101363.38;6117692;23;6966;-75
2023/10/01 09:47:36;;;;;;;;;;;;;;;24.43;49.79;101357.28;6096542;23;6942;-75
2023/10/01 09:50:05;;;;;;;;;;;;;;;24.57;49.63;101362.59;6092292;23;6767;-75
2023/10/01 09:52:48;;;;;;;;;;;;;;;24.69;49.20;101364.41;6087490;23;6771;-75
2023/10/01 09:55:29;;;;;;;;;;;;;;;24.84;49.25;101366.25;6095287;23;6945;-74
2023/10/01 09:57:56;;;;;;;;;;;;;;;24.99;49.60;101367.19;6093221;23;8572;-75
2023/10/01 10:00:39;;;;;;;;;;;;;;;25.14;49.56;101355.88;6090746;23;7829;-75
2023/10/01 10:03:11;;;;;;;;;;;;;;;25.32;49.35;101342.78;6071692;23;7181;-74
2023/10/01 10:05:40;;;;;;;;;;;;;;;25.48;48.88;101346.31;6114922;23;6767;-75
2023/10/01 10:08:20;;;;;;;;;;;;;;;25.75;48.65;101355.09;6091195;23;6986;-75
2023/10/01 10:10:55;;;;;;;;;;;;;;;26.60;48.13;101347.94;6137790;23;6928;-75
2023/10/01 10:13:46;;;;;;;;;;;;;;;27.79;46.37;101334.97;6112116;23;6778;-78
2023/10/01 10:16:31;;;;;;;;;;;;;;;29.14;44.49;101327.28;6108142;23;6778;-81
2023/10/01 10:19:23;;;;;;;;;;;;;;;30.48;42.36;101323.19;6131653;23;7038;-79
2023/10/01 10:24:46;;;;;;;;;;;;;;;32.41;39.37;101314.09;6129761;23;7012;-77
2023/10/01 10:27:24;;;;;;;;;;;;;;;33.27;38.18;101308.81;6121658;23;6933;-78
2023/10/01 10:29:56;;;;;;;;;;;;;;;33.75;36.74;101303.69;6102010;23;7026;-75
2023/10/01 10:32:51;;;;;;;;;;;;;;;34.10;35.81;101298.91;6142602;23;6778;-75
2023/10/01 10:35:19;;;;;;;;;;;;;;;34.47;35.17;101308.13;6068355;23;7259;-75
2023/10/01 10:37:53;;;;;;;;;;;;;;;34.77;34.70;101312.38;6143806;23;6951;-74
2023/10/01 10:43:02;;;;;;;;;;;;;;;35.10;33.93;101303.94;6109132;23;6930;-76
2023/10/01 10:45:45;;;;;;;;;;;;;;;35.27;33.21;101308.59;6122908;23;6778;-76
2023/10/01 10:48:21;;;;;;;;;;;;;;;35.40;33.55;101302.75;6106618;23;7027;-76
2023/10/01 10:50:49;;;;;;;;;;;;;;;35.71;32.86;101307.66;6103118;23;7195;-77
2023/10/01 10:53:21;;;;;;;;;;;;;;;36.04;32.42;101298.19;6116355;23;7179;-76
2023/10/01 10:55:53;;;;;;;;;;;;;;;36.44;32.03;101306.16;6106955;23;6954;-76
2023/10/01 10:58:24;;;;;;;;;;;;;;;36.67;31.85;101307.78;6133465;23;6770;-78
2023/10/01 11:00:56;;;;;;;;;;;;;;;36.86;31.25;101295.34;6122615;23;7369;-75
2023/10/01 11:03:42;;;;;;;;;;;;;;;37.04;30.52;101304.22;6102832;23;6767;-76
2023/10/01 11:06:23;;;;;;;;;;;;;;;37.32;30.50;101293.03;6089599;23;7251;-76
2023/10/01 11:08:52;;;;;;;;;;;;;;;37.55;30.23;101287.47;6109857;23;6914;-75
2023/10/01 11:11:39;;;;;;;;;;;;;;;37.74;29.71;101280.19;6113973;23;6762;-75
2023/10/01 11:14:11;;;;;;;;;;;;;;;37.85;29.63;101289.47;6113644;23;7243;-75
2023/10/01 11:16:40;;;;;;;;;;;;;;;37.95;29.37;101285.34;6089464;23;8741;-75
2023/10/01 11:19:14;;;;;;;;;;;;;;;38.11;29.08;101284.53;6113779;23;7242;-75
2023/10/01 11:21:55;;;;;;;;;;;;;;;38.32;28.77;101280.66;6113550;23;6778;-76
2023/10/01 11:24:31;;;;;;;;;;;;;;;38.51;28.42;101282.34;6088867;23;6925;-76
2023/10/01 11:27:22;;;;;;;;;;;;;;;38.69;28.02;101280.44;6088870;23;7076;-76
2023/10/01 11:30:12;;;;;;;;;;;;;;;38.80;27.67;101279.78;6086222;23;6828;-76
2023/10/01 11:35:33;;;;;;;;;;;;;;;39.06;27.46;101282.81;6097892;23;7097;-76
2023/10/01 11:38:19;;;;;;;;;;;;;;;39.04;26.89;101276.69;6087791;23;6850;-76
2023/10/01 11:41:09;;;;;;;;;;;;;;;38.85;26.95;101283.09;6088228;23;6774;-76
2023/10/01 11:43:59;;;;;;;;;;;;;;;38.77;26.41;101271.94;6088969;23;7203;-76
2023/10/01 11:46:34;;;;;;;;;;;;;;;38.57;25.92;101282.00;6089571;23;6948;-76
2023/10/01 11:49:06;;;;;;;;;;;;;;;38.54;25.58;101266.13;6087553;23;6963;-76
2023/10/01 11:51:54;;;;;;;;;;;;;;;38.55;25.58;101266.97;6111321;23;6954;-76
2023/10/01 11:54:25;;;;;;;;;;;;;;;38.46;25.55;101265.66;6090395;23;6783;-76
2023/10/01 11:57:05;;;;;;;;;;;;;;;38.57;25.78;101267.72;6088144;23;6775;-76
2023/10/01 11:59:42;;;;;;;;;;;;;;;38.66;25.34;101255.66;6082084;23;7195;-76
2023/10/01 12:02:20;;;;;;;;;;;;;;;38.61;25.27;101262.09;6057033;23;6831;-75
2023/10/01 12:04:57;;;;;;;;;;;;;;;38.37;25.00;101260.81;6062107;23;7027;-76
2023/10/01 12:07:27;;;;;;;;;;;;;;;38.15;25.14;101259.31;6083933;23;7226;-76
2023/10/01 12:09:55;;;;;;;;;;;;;;;37.92;25.31;101261.44;6059462;23;7029;-76
2023/10/01 12:12:36;;;;;;;;;;;;;;;37.74;25.77;101253.47;6058426;23;7150;-76
2023/10/01 12:17:51;;;;;;;;;;;;;;;36.20;26.82;101250.38;6059994;23;6760;-75
2023/10/01 12:20:28;;;;;;;;;;;;;;;34.96;27.79;101258.38;6058671;23;6953;-76
2023/10/01 12:23:10;;;;;;;;;;;;;;;33.85;28.61;101251.94;6059461;23;7247;-76
2023/10/01 12:25:46;;;;;;;;;;;;;;;32.88;29.80;101248.13;6040169;23;7167;-75
2023/10/01 12:28:27;;;;;;;;;;;;;;;32.14;30.88;101249.44;6062005;23;6940;-75
2023/10/01 12:30:57;;;;;;;;;;;;;;;31.56;31.36;101253.66;6037411;23;6974;-75
2023/10/01 12:33:40;;;;;;;;;;;;;;;31.10;32.04;101238.94;6061487;23;7188;-74
2023/10/01 12:39:16;;;;;;;;;;;;;;;30.41;33.13;101236.94;6057354;23;6911;-75
2023/10/01 12:44:34;;;;;;;;;;;;;;;29.94;33.51;101237.91;6068300;23;6775;-75
2023/10/01 12:47:07;;;;;;;;;;;;;;;29.71;34.47;101233.94;6060640;23;6775;-75
2023/10/01 12:49:35;;;;;;;;;;;;;;;29.60;33.83;101233.28;6058731;23;6767;-75
2023/10/01 12:52:09;;;;;;;;;;;;;;;29.48;35.00;101231.72;6058010;23;6771;-75
2023/10/01 12:54:38;;;;;;;;;;;;;;;29.36;35.02;101232.78;6056622;23;6775;-75
2023/10/01 12:57:22;;;;;;;;;;;;;;;29.27;34.70;101230.31;6059033;23;6985;-75
2023/10/01 13:00:23;;;;;;;;;;;;;;;29.16;35.73;101231.34;6059934;23;6783;-75
2023/10/01 13:02:43;;;;;;;;;;;;;;;29.05;36.04;101220.97;6059390;23;6807;-75
2023/10/01 13:05:27;;;;;;;;;;;;;;;29.01;35.74;101234.25;6082626;23;6803;-74
2023/10/01 13:07:56;;;;;;;;;;;;;;;28.93;35.24;101226.47;6059677;23;6966;-75
2023/10/01 13:10:35;;;;;;;;;;;;;;;28.87;36.18;101211.56;6058536;23;6767;-75
2023/10/01 13:13:05;;;;;;;;;;;;;;;28.83;36.00;101207.25;6059035;23;7133;-75
2023/10/01 13:15:33;;;;;;;;;;;;;;;28.77;36.26;101205.56;6057432;23;6799;-76
2023/10/01 13:18:01;;;;;;;;;;;;;;;28.74;35.69;101200.34;6037194;23;7240;-76
2023/10/01 13:20:46;;;;;;;;;;;;;;;28.72;36.57;101201.25;6058356;23;7169;-75
2023/10/01 13:23:12;;;;;;;;;;;;;;;28.69;35.76;101196.88;6057730;23;7010;-75
2023/10/01 13:25:47;;;;;;;;;;;;;;;28.67;36.02;101201.31;6057592;23;6767;-75
2023/10/01 13:28:20;;;;;;;;;;;;;;;28.63;35.82;101203.13;6058199;23;6899;-75
2023/10/01 13:33:43;;;;;;;;;;;;;;;28.56;35.66;101188.28;6067280;23;6887;-75
2023/10/01 13:36:13;;;;;;;;;;;;;;;28.57;35.82;101187.38;6060427;23;6950;-75
2023/10/01 13:38:56;;;;;;;;;;;;;;;28.58;36.24;101189.13;6058287;23;7720;-75
2023/10/01 14:08:44;;;;;;;;;;;;;;;28.72;35.90;101159.06;6090410;23;6771;-71
2023/10/01 14:11:11;;;;;;;;;;;;;;;28.80;35.89;101162.44;6069689;23;6979;-73
2023/10/01 14:13:41;;;;;;;;;;;;;;;28.93;36.38;101158.72;6089119;23;6759;-74
2023/10/01 14:16:12;;;;;;;;;;;;;;;29.21;36.33;101154.72;6090236;23;7059;-72
2023/10/01 14:18:53;;;;;;;;;;;;;;;29.64;36.07;101156.59;6089745;23;6775;-73
2023/10/01 14:21:27;;;;;;;;;;;;;;;30.23;35.26;101149.25;6093620;23;6969;-73
2023/10/01 14:26:43;;;;;;;;;;;;;;;31.16;33.53;101144.34;6093837;23;6848;-75
2023/10/01 14:29:10;;;;;;;;;;;;;;;31.52;32.70;101142.53;6095826;23;6982;-75
2023/10/01 14:31:41;;;;;;;;;;;;;;;31.80;32.14;101142.63;6091952;23;7266;-73
2023/10/01 14:34:08;;;;;;;;;;;;;;;32.08;32.02;101140.94;6090793;23;7201;-75
2023/10/01 14:36:39;;;;;;;;;;;;;;;32.33;32.02;101124.25;6067267;23;6993;-74
2023/10/01 14:39:09;;;;;;;;;;;;;;;32.57;31.49;101129.72;6092201;23;6831;-72
2023/10/01 14:41:41;;;;;;;;;;;;;;;32.73;31.14;101119.47;6090741;23;6779;-75
2023/10/01 14:44:07;;;;;;;;;;;;;;;32.85;30.80;101121.69;6075199;23;7190;-74
2023/10/01 14:46:34;;;;;;;;;;;;;;;32.92;30.93;101119.72;6088765;23;6786;-73
2023/10/01 14:49:06;;;;;;;;;;;;;;;32.95;31.02;101116.97;6089695;23;7189;-75
2023/10/01 14:51:33;;;;;;;;;;;;;;;32.99;30.71;101120.41;6091184;23;7171;-73
2023/10/01 14:54:01;;;;;;;;;;;;;;;33.01;30.63;101121.19;6045764;23;6956;-75
2023/10/01 14:56:31;;;;;;;;;;;;;;;33.00;30.74;101115.00;6062171;23;6791;-75
2023/10/01 14:58:58;;;;;;;;;;;;;;;33.01;30.92;101105.28;6062286;23;6970;-75
2023/10/01 15:01:23;;;;;;;;;;;;;;;32.99;31.05;101107.13;6060854;23;7197;-75
2023/10/01 15:03:55;;;;;;;;;;;;;;;32.92;30.79;101109.97;6059990;23;6944;-74
2023/10/01 15:06:23;;;;;;;;;;;;;;;32.78;30.68;101112.19;6039465;23;7285;-75
2023/10/01 15:08:58;;;;;;;;;;;;;;;32.60;31.05;101106.63;6058806;23;6779;-75
2023/10/01 15:11:23;;;;;;;;;;;;;;;32.44;31.35;101100.94;6064387;23;6779;-75
2023/10/01 15:13:49;;;;;;;;;;;;;;;32.34;31.86;101096.81;6062960;23;7149;-76
2023/10/01 15:16:17;;;;;;;;;;;;;;;32.25;31.70;101100.66;6111946;23;6763;-76